createdAt,value
2023-05-21T00:00:02.094Z,97.38
2023-05-21T00:00:12.609Z,97.38
2023-05-21T00:00:23.132Z,97.38
2023-05-21T00:00:33.654Z,97.28
2023-05-21T00:00:44.167Z,97.28
2023-05-21T00:00:54.684Z,97.28
2023-05-21T00:01:05.203Z,97.17
2023-05-21T00:01:15.712Z,97.08
2023-05-21T00:01:26.215Z,97.08
2023-05-21T00:01:36.732Z,96.97
2023-05-21T00:01:47.449Z,96.97
2023-05-21T00:01:57.782Z,96.97
2023-05-21T00:02:08.275Z,96.97
2023-05-21T00:02:18.921Z,96.97
2023-05-21T00:02:29.476Z,96.97
2023-05-21T00:02:39.912Z,96.97
2023-05-21T00:02:50.381Z,96.97
2023-05-21T00:03:00.909Z,96.97
2023-05-21T00:03:11.494Z,96.97
2023-05-21T00:03:22.009Z,97.08
2023-05-21T00:03:32.484Z,97.08
2023-05-21T00:03:43.097Z,97.08
2023-05-21T00:03:53.675Z,97.17
2023-05-21T00:04:04.054Z,97.17
2023-05-21T00:04:14.479Z,97.17
2023-05-21T00:04:25.007Z,97.08
2023-05-21T00:04:35.508Z,97.08
2023-05-21T00:04:46.058Z,97.08
2023-05-21T00:04:56.533Z,97.08
2023-05-21T00:05:07.061Z,96.97
2023-05-21T00:05:17.578Z,96.87
2023-05-21T00:05:28.086Z,96.87
2023-05-21T00:05:38.863Z,96.77
2023-05-21T00:05:49.138Z,96.67
2023-05-21T00:05:59.675Z,96.56
2023-05-21T00:06:10.170Z,96.56
2023-05-21T00:06:20.692Z,96.46
2023-05-21T00:06:31.204Z,96.41
2023-05-21T00:06:41.698Z,96.41
2023-05-21T00:06:52.249Z,96.41
2023-05-21T00:07:02.770Z,96.51
2023-05-21T00:07:13.240Z,96.61
2023-05-21T00:07:23.757Z,96.71
2023-05-21T00:07:34.271Z,96.81
2023-05-21T00:07:44.789Z,96.92
2023-05-21T00:07:55.321Z,96.92
2023-05-21T00:08:05.816Z,96.92
2023-05-21T00:08:16.339Z,97.02
2023-05-21T00:08:26.878Z,96.92
2023-05-21T00:08:37.369Z,96.92
2023-05-21T00:08:47.886Z,96.92
2023-05-21T00:08:58.403Z,96.81
2023-05-21T00:09:08.913Z,96.92
2023-05-21T00:09:19.480Z,96.92
2023-05-21T00:09:29.942Z,96.92
2023-05-21T00:09:40.463Z,97.02
2023-05-21T00:09:50.974Z,97.12
2023-05-21T00:10:01.495Z,97.22
2023-05-21T00:10:12.011Z,97.22
2023-05-21T00:10:22.578Z,97.33
2023-05-21T00:10:33.038Z,97.33
2023-05-21T00:10:43.556Z,97.33
2023-05-21T00:10:54.080Z,97.33
2023-05-21T00:11:04.601Z,97.33
2023-05-21T00:11:15.104Z,97.33
2023-05-21T00:11:25.617Z,97.33
2023-05-21T00:11:36.150Z,97.22
2023-05-21T00:11:46.670Z,97.22
2023-05-21T00:11:57.170Z,97.22
2023-05-21T00:12:07.696Z,97.22
2023-05-21T00:12:18.209Z,97.12
2023-05-21T00:12:28.718Z,97.12
2023-05-21T00:12:39.258Z,97.12
2023-05-21T00:12:49.807Z,97.12
2023-05-21T00:13:00.272Z,97.12
2023-05-21T00:13:10.806Z,97.12
2023-05-21T00:13:21.297Z,97.12
2023-05-21T00:13:31.828Z,97.22
2023-05-21T00:13:42.328Z,97.22
2023-05-21T00:13:52.844Z,97.33
2023-05-21T00:14:03.365Z,97.33
2023-05-21T00:14:13.897Z,97.33
2023-05-21T00:14:24.412Z,97.33
2023-05-21T00:14:34.906Z,97.33
2023-05-21T00:14:45.443Z,97.33
2023-05-21T00:14:55.943Z,97.42
2023-05-21T00:15:06.459Z,97.42
2023-05-21T00:15:17.003Z,97.42
2023-05-21T00:15:27.487Z,97.42
2023-05-21T00:15:38.110Z,97.42
2023-05-21T00:15:48.517Z,97.42
2023-05-21T00:15:59.096Z,97.42
2023-05-21T00:16:09.555Z,97.42
2023-05-21T00:16:20.104Z,97.42
2023-05-21T00:16:30.610Z,97.33
2023-05-21T00:16:41.144Z,97.33
2023-05-21T00:16:51.642Z,97.27
2023-05-21T00:17:02.154Z,97.27
2023-05-21T00:17:12.650Z,97.27
2023-05-21T00:17:23.188Z,97.16
2023-05-21T00:17:33.696Z,97.16
2023-05-21T00:17:44.216Z,97.06
2023-05-21T00:17:54.737Z,97.06
2023-05-21T00:18:05.306Z,96.96
2023-05-21T00:18:15.744Z,96.96
2023-05-21T00:18:26.308Z,96.86
2023-05-21T00:18:36.772Z,96.86
2023-05-21T00:18:47.319Z,96.86
2023-05-21T00:18:57.813Z,96.75
2023-05-21T00:19:08.392Z,96.75
2023-05-21T00:19:18.905Z,96.86
2023-05-21T00:19:29.393Z,96.86
2023-05-21T00:19:39.887Z,96.86
2023-05-21T00:19:50.423Z,96.96
2023-05-21T00:20:00.906Z,96.96
2023-05-21T00:20:11.420Z,96.96
2023-05-21T00:20:21.958Z,96.96
2023-05-21T00:20:32.652Z,96.96
2023-05-21T00:20:42.986Z,96.96
2023-05-21T00:20:53.486Z,97.06
2023-05-21T00:21:04.003Z,97.06
2023-05-21T00:21:14.517Z,97.16
2023-05-21T00:21:25.043Z,97.16
2023-05-21T00:21:35.556Z,97.27
2023-05-21T00:21:46.063Z,97.27
2023-05-21T00:21:56.591Z,97.27
2023-05-21T00:22:07.098Z,97.27
2023-05-21T00:22:17.605Z,97.16
2023-05-21T00:22:28.121Z,97.16
2023-05-21T00:22:38.647Z,97.16
2023-05-21T00:22:49.179Z,97.16
2023-05-21T00:22:59.682Z,97.16
2023-05-21T00:23:10.197Z,97.27
2023-05-21T00:23:20.717Z,97.37
2023-05-21T00:23:31.226Z,97.47
2023-05-21T00:23:41.734Z,97.47
2023-05-21T00:23:52.249Z,97.57
2023-05-21T00:24:02.770Z,97.57
2023-05-21T00:24:13.278Z,97.57
2023-05-21T00:24:23.800Z,97.67
2023-05-21T00:24:34.310Z,97.67
2023-05-21T00:24:44.901Z,97.57
2023-05-21T00:24:55.372Z,97.57
2023-05-21T00:25:05.863Z,97.57
2023-05-21T00:25:16.378Z,97.57
2023-05-21T00:25:26.904Z,97.57
2023-05-21T00:25:37.597Z,97.47
2023-05-21T00:25:47.944Z,97.47
2023-05-21T00:25:58.445Z,97.47
2023-05-21T00:26:08.968Z,97.37
2023-05-21T00:26:19.481Z,97.37
2023-05-21T00:26:30.010Z,97.37
2023-05-21T00:26:40.512Z,97.37
2023-05-21T00:26:51.031Z,97.37
2023-05-21T00:27:01.544Z,97.27
2023-05-21T00:27:12.073Z,97.27
2023-05-21T00:27:22.580Z,97.16
2023-05-21T00:27:33.100Z,97.16
2023-05-21T00:27:43.617Z,97.06
2023-05-21T00:27:54.130Z,97.06
2023-05-21T00:28:04.676Z,97.06
2023-05-21T00:28:15.171Z,97.16
2023-05-21T00:28:25.686Z,97.16
2023-05-21T00:28:36.201Z,97.27
2023-05-21T00:28:46.734Z,97.27
2023-05-21T00:28:57.232Z,97.37
2023-05-21T00:29:07.754Z,97.37
2023-05-21T00:29:18.281Z,97.47
2023-05-21T00:29:28.784Z,97.57
2023-05-21T00:29:39.291Z,97.67
2023-05-21T00:29:49.807Z,97.88
2023-05-21T00:30:00.331Z,97.98
2023-05-21T00:30:10.858Z,98.08
2023-05-21T00:30:21.378Z,98.29
2023-05-21T00:30:31.897Z,98.39
2023-05-21T00:30:42.412Z,98.39
2023-05-21T00:30:52.894Z,98.49
2023-05-21T00:31:03.412Z,98.49
2023-05-21T00:31:13.961Z,98.49
2023-05-21T00:31:24.577Z,98.60
2023-05-21T00:31:35.012Z,98.49
2023-05-21T00:31:45.583Z,98.49
2023-05-21T00:31:56.102Z,98.49
2023-05-21T00:32:06.547Z,98.49
2023-05-21T00:32:17.022Z,98.49
2023-05-21T00:32:27.567Z,98.39
2023-05-21T00:32:38.105Z,98.39
2023-05-21T00:32:48.602Z,98.29
2023-05-21T00:32:59.226Z,98.29
2023-05-21T00:33:09.621Z,98.19
2023-05-21T00:33:20.121Z,98.08
2023-05-21T00:33:30.633Z,98.08
2023-05-21T00:33:41.162Z,97.98
2023-05-21T00:33:51.665Z,98.08
2023-05-21T00:34:02.240Z,98.08
2023-05-21T00:34:12.707Z,98.19
2023-05-21T00:34:23.228Z,98.19
2023-05-21T00:34:33.734Z,98.29
2023-05-21T00:34:44.259Z,98.29
2023-05-21T00:34:54.790Z,98.44
2023-05-21T00:35:05.296Z,98.44
2023-05-21T00:35:15.828Z,98.44
2023-05-21T00:35:26.314Z,98.54
2023-05-21T00:35:37.069Z,98.65
2023-05-21T00:35:47.370Z,98.65
2023-05-21T00:35:57.874Z,98.74
2023-05-21T00:36:08.388Z,98.85
2023-05-21T00:36:18.908Z,98.95
2023-05-21T00:36:29.446Z,98.95
2023-05-21T00:36:39.930Z,99.05
2023-05-21T00:36:50.453Z,99.05
2023-05-21T00:37:00.961Z,99.05
2023-05-21T00:37:11.526Z,99.15
2023-05-21T00:37:22.020Z,99.15
2023-05-21T00:37:32.508Z,99.15
2023-05-21T00:37:43.056Z,99.26
2023-05-21T00:37:53.534Z,99.26
2023-05-21T00:38:04.053Z,99.26
2023-05-21T00:38:14.568Z,99.26
2023-05-21T00:38:25.086Z,99.26
2023-05-21T00:38:35.596Z,99.36
2023-05-21T00:38:46.267Z,99.36
2023-05-21T00:38:56.637Z,99.26
2023-05-21T00:39:07.144Z,99.30
2023-05-21T00:39:17.652Z,99.30
2023-05-21T00:39:28.170Z,99.30
2023-05-21T00:39:38.685Z,99.20
2023-05-21T00:39:49.226Z,99.10
2023-05-21T00:39:59.718Z,99.10
2023-05-21T00:40:10.227Z,98.99
2023-05-21T00:40:20.741Z,98.99
2023-05-21T00:40:31.257Z,98.90
2023-05-21T00:40:41.777Z,98.90
2023-05-21T00:40:52.309Z,98.79
2023-05-21T00:41:02.823Z,98.79
2023-05-21T00:41:13.328Z,98.69
2023-05-21T00:41:23.838Z,98.58
2023-05-21T00:41:34.360Z,98.49
2023-05-21T00:41:44.877Z,98.49
2023-05-21T00:41:55.388Z,98.38
2023-05-21T00:42:05.908Z,98.38
2023-05-21T00:42:16.443Z,98.28
2023-05-21T00:42:26.941Z,98.28
2023-05-21T00:42:37.455Z,98.28
2023-05-21T00:42:47.972Z,98.18
2023-05-21T00:42:58.477Z,98.18
2023-05-21T00:43:08.992Z,98.07
2023-05-21T00:43:19.513Z,98.07
2023-05-21T00:43:30.026Z,98.07
2023-05-21T00:43:40.544Z,97.97
2023-05-21T00:43:51.051Z,97.97
2023-05-21T00:44:01.572Z,97.97
2023-05-21T00:44:12.097Z,97.87
2023-05-21T00:44:22.595Z,97.87
2023-05-21T00:44:33.112Z,97.87
2023-05-21T00:44:43.628Z,97.77
2023-05-21T00:44:54.153Z,97.77
2023-05-21T00:45:04.666Z,97.77
2023-05-21T00:45:15.191Z,97.77
2023-05-21T00:45:25.750Z,97.77
2023-05-21T00:45:36.427Z,97.77
2023-05-21T00:45:46.938Z,97.87
2023-05-21T00:45:57.271Z,97.87
2023-05-21T00:46:07.831Z,97.87
2023-05-21T00:46:18.363Z,97.97
2023-05-21T00:46:28.813Z,97.97
2023-05-21T00:46:39.311Z,98.07
2023-05-21T00:46:49.861Z,98.18
2023-05-21T00:47:00.348Z,98.28
2023-05-21T00:47:10.871Z,98.38
2023-05-21T00:47:21.421Z,98.38
2023-05-21T00:47:31.915Z,98.49
2023-05-21T00:47:42.437Z,98.58
2023-05-21T00:47:52.975Z,98.58
2023-05-21T00:48:03.521Z,98.69
2023-05-21T00:48:13.950Z,98.69
2023-05-21T00:48:24.473Z,98.69
2023-05-21T00:48:34.990Z,98.69
2023-05-21T00:48:45.501Z,98.69
2023-05-21T00:48:56.027Z,98.69
2023-05-21T00:49:06.527Z,98.69
2023-05-21T00:49:17.071Z,98.69
2023-05-21T00:49:27.551Z,98.69
2023-05-21T00:49:38.065Z,98.69
2023-05-21T00:49:48.589Z,98.69
2023-05-21T00:49:59.132Z,98.69
2023-05-21T00:50:09.651Z,98.69
2023-05-21T00:50:20.128Z,98.69
2023-05-21T00:50:30.656Z,98.69
2023-05-21T00:50:41.165Z,98.69
2023-05-21T00:50:51.683Z,98.58
2023-05-21T00:51:02.194Z,98.58
2023-05-21T00:51:12.721Z,98.58
2023-05-21T00:51:23.225Z,98.58
2023-05-21T00:51:33.741Z,98.49
2023-05-21T00:51:44.256Z,98.58
2023-05-21T00:51:54.781Z,98.58
2023-05-21T00:52:05.280Z,98.58
2023-05-21T00:52:15.807Z,98.58
2023-05-21T00:52:26.309Z,98.58
2023-05-21T00:52:36.827Z,98.58
2023-05-21T00:52:47.341Z,98.58
2023-05-21T00:52:57.863Z,98.58
2023-05-21T00:53:08.376Z,98.58
2023-05-21T00:53:18.887Z,98.58
2023-05-21T00:53:29.404Z,98.58
2023-05-21T00:53:39.920Z,98.58
2023-05-21T00:53:50.444Z,98.58
2023-05-21T00:54:00.950Z,98.58
2023-05-21T00:54:11.464Z,98.58
2023-05-21T00:54:22.105Z,98.58
2023-05-21T00:54:32.482Z,98.49
2023-05-21T00:54:43.001Z,98.49
2023-05-21T00:54:53.516Z,98.49
2023-05-21T00:55:04.048Z,98.49
2023-05-21T00:55:14.549Z,98.49
2023-05-21T00:55:25.060Z,98.38
2023-05-21T00:55:35.765Z,98.38
2023-05-21T00:55:46.085Z,98.28
2023-05-21T00:55:56.601Z,98.28
2023-05-21T00:56:07.143Z,98.18
2023-05-21T00:56:17.655Z,98.18
2023-05-21T00:56:28.147Z,98.18
2023-05-21T00:56:38.675Z,98.07
2023-05-21T00:56:49.186Z,98.07
2023-05-21T00:56:59.765Z,98.07
2023-05-21T00:57:10.203Z,98.12
2023-05-21T00:57:20.731Z,98.12
2023-05-21T00:57:31.242Z,98.12
2023-05-21T00:57:41.751Z,98.12
2023-05-21T00:57:52.271Z,98.12
2023-05-21T00:58:02.814Z,98.12
2023-05-21T00:58:13.304Z,98.12
2023-05-21T00:58:23.836Z,98.12
2023-05-21T00:58:34.333Z,98.02
2023-05-21T00:58:44.842Z,98.02
2023-05-21T00:58:55.368Z,98.02
2023-05-21T00:59:05.908Z,98.02
2023-05-21T00:59:16.389Z,98.02
2023-05-21T00:59:26.919Z,98.02
2023-05-21T00:59:37.416Z,98.02
2023-05-21T00:59:47.946Z,98.02
2023-05-21T00:59:58.448Z,98.02
2023-05-21T01:00:09.147Z,98.02
2023-05-21T01:00:19.479Z,98.02
2023-05-21T01:00:30.001Z,98.02
2023-05-21T01:00:40.505Z,98.12
2023-05-21T01:00:51.072Z,98.12
2023-05-21T01:01:01.591Z,98.12
2023-05-21T01:01:12.073Z,98.12
2023-05-21T01:01:22.602Z,98.22
2023-05-21T01:01:33.113Z,98.33
2023-05-21T01:01:43.735Z,98.33
2023-05-21T01:01:54.104Z,98.43
2023-05-21T01:02:04.650Z,98.43
2023-05-21T01:02:15.179Z,98.43
2023-05-21T01:02:25.793Z,98.53
2023-05-21T01:02:36.295Z,98.53
2023-05-21T01:02:46.791Z,98.53
2023-05-21T01:02:57.258Z,98.53
2023-05-21T01:03:07.844Z,98.53
2023-05-21T01:03:18.300Z,98.53
2023-05-21T01:03:28.805Z,98.43
2023-05-21T01:03:39.274Z,98.43
2023-05-21T01:03:49.769Z,98.43
2023-05-21T01:04:00.276Z,98.43
2023-05-21T01:04:10.789Z,98.43
2023-05-21T01:04:21.309Z,98.33
2023-05-21T01:04:31.828Z,98.33
2023-05-21T01:04:42.339Z,98.33
2023-05-21T01:04:52.850Z,98.33
2023-05-21T01:05:03.397Z,98.22
2023-05-21T01:05:13.885Z,98.22
2023-05-21T01:05:24.407Z,98.12
2023-05-21T01:05:35.127Z,98.12
2023-05-21T01:05:45.426Z,98.12
2023-05-21T01:05:55.938Z,98.12
2023-05-21T01:06:06.479Z,98.22
2023-05-21T01:06:16.990Z,98.22
2023-05-21T01:06:27.489Z,98.33
2023-05-21T01:06:37.997Z,98.53
2023-05-21T01:06:48.508Z,98.63
2023-05-21T01:06:59.036Z,98.74
2023-05-21T01:07:09.554Z,98.74
2023-05-21T01:07:20.055Z,98.83
2023-05-21T01:07:30.571Z,98.94
2023-05-21T01:07:41.131Z,98.94
2023-05-21T01:07:51.609Z,99.04
2023-05-21T01:08:02.132Z,99.04
2023-05-21T01:08:12.633Z,99.04
2023-05-21T01:08:23.162Z,99.15
2023-05-21T01:08:33.674Z,99.15
2023-05-21T01:08:44.180Z,99.15
2023-05-21T01:08:54.705Z,99.25
2023-05-21T01:09:05.608Z,99.25
2023-05-21T01:09:15.823Z,99.25
2023-05-21T01:09:26.248Z,99.25
2023-05-21T01:09:36.775Z,99.25
2023-05-21T01:09:47.284Z,99.35
2023-05-21T01:09:57.821Z,99.35
2023-05-21T01:10:08.328Z,99.35
2023-05-21T01:10:19.098Z,99.35
2023-05-21T01:10:29.337Z,99.35
2023-05-21T01:10:39.855Z,99.35
2023-05-21T01:10:50.384Z,99.45
2023-05-21T01:11:00.891Z,99.45
2023-05-21T01:11:11.402Z,99.55
2023-05-21T01:11:21.913Z,99.55
2023-05-21T01:11:32.439Z,99.66
2023-05-21T01:11:42.971Z,99.66
2023-05-21T01:11:53.487Z,99.66
2023-05-21T01:12:03.972Z,99.76
2023-05-21T01:12:14.492Z,99.76
2023-05-21T01:12:25.007Z,99.76
2023-05-21T01:12:35.542Z,99.71
2023-05-21T01:12:46.039Z,99.86
2023-05-21T01:12:56.555Z,99.82
2023-05-21T01:13:07.072Z,99.82
2023-05-21T01:13:17.586Z,99.91
2023-05-21T01:13:28.111Z,99.91
2023-05-21T01:13:38.660Z,99.91
2023-05-21T01:13:49.130Z,99.91
2023-05-21T01:13:59.653Z,99.91
2023-05-21T01:14:10.238Z,99.91
2023-05-21T01:14:20.687Z,99.91
2023-05-21T01:14:31.198Z,99.91
2023-05-21T01:14:41.712Z,99.91
2023-05-21T01:14:52.231Z,99.91
2023-05-21T01:15:02.763Z,99.91
2023-05-21T01:15:13.281Z,99.91
2023-05-21T01:15:23.775Z,99.91
2023-05-21T01:15:34.641Z,99.91
2023-05-21T01:15:44.806Z,99.91
2023-05-21T01:15:55.313Z,99.91
2023-05-21T01:16:05.837Z,99.99
2023-05-21T01:16:16.353Z,99.91
2023-05-21T01:16:26.888Z,99.99
2023-05-21T01:16:37.423Z,99.91
2023-05-21T01:16:47.918Z,99.91
2023-05-21T01:16:58.444Z,99.91
2023-05-21T01:17:08.954Z,99.91
2023-05-21T01:17:19.469Z,99.91
2023-05-21T01:17:30.194Z,99.91
2023-05-21T01:17:40.472Z,99.91
2023-05-21T01:17:51.014Z,99.99
2023-05-21T01:18:01.567Z,99.99
2023-05-21T01:18:12.065Z,99.91
2023-05-21T01:18:22.557Z,99.99
2023-05-21T01:18:33.077Z,99.99
2023-05-21T01:18:43.789Z,99.99
2023-05-21T01:18:54.198Z,99.99
2023-05-21T01:19:04.661Z,99.99
2023-05-21T01:19:15.178Z,99.99
2023-05-21T01:19:25.661Z,99.99
2023-05-21T01:19:36.198Z,99.99
2023-05-21T01:19:46.787Z,99.99
2023-05-21T01:19:57.156Z,99.99
2023-05-21T01:20:09.303Z,99.99
2023-05-21T01:20:18.250Z,99.99
2023-05-21T01:20:28.693Z,99.99
2023-05-21T01:20:39.209Z,99.99
2023-05-21T01:20:49.732Z,99.99
2023-05-21T01:21:00.242Z,99.99
2023-05-21T01:21:10.753Z,99.99
2023-05-21T01:21:21.259Z,99.99
2023-05-21T01:21:31.771Z,99.99
2023-05-21T01:21:42.291Z,99.99
2023-05-21T01:21:52.922Z,99.99
2023-05-21T01:22:03.322Z,99.99
2023-05-21T01:22:13.832Z,99.99
2023-05-21T01:22:24.362Z,99.99
2023-05-21T01:22:34.861Z,99.99
2023-05-21T01:22:45.381Z,99.99
2023-05-21T01:22:55.955Z,99.99
2023-05-21T01:23:06.404Z,99.99
2023-05-21T01:23:16.935Z,99.99
2023-05-21T01:23:27.448Z,99.99
2023-05-21T01:23:37.949Z,99.99
2023-05-21T01:23:48.472Z,99.99
2023-05-21T01:23:58.995Z,99.99
2023-05-21T01:24:09.516Z,99.99
2023-05-21T01:24:20.025Z,99.99
2023-05-21T01:24:30.537Z,99.99
2023-05-21T01:24:41.041Z,99.99
2023-05-21T01:24:51.548Z,99.99
2023-05-21T01:25:02.058Z,99.99
2023-05-21T01:25:12.571Z,99.99
2023-05-21T01:25:23.122Z,99.99
2023-05-21T01:25:33.761Z,99.99
2023-05-21T01:25:44.122Z,99.99
2023-05-21T01:25:54.623Z,99.99
2023-05-21T01:26:05.148Z,99.99
2023-05-21T01:26:15.656Z,99.99
2023-05-21T01:26:26.192Z,99.99
2023-05-21T01:26:36.682Z,99.99
2023-05-21T01:26:47.202Z,99.99
2023-05-21T01:26:57.710Z,99.99
2023-05-21T01:27:08.220Z,99.99
2023-05-21T01:27:18.742Z,99.99
2023-05-21T01:27:29.262Z,99.99
2023-05-21T01:27:39.766Z,99.99
2023-05-21T01:27:50.282Z,99.99
2023-05-21T01:28:00.788Z,99.99
2023-05-21T01:28:11.311Z,99.99
2023-05-21T01:28:21.820Z,99.99
2023-05-21T01:28:32.332Z,99.99
2023-05-21T01:28:42.885Z,99.99
2023-05-21T01:28:53.384Z,99.99
2023-05-21T01:29:03.898Z,99.99
2023-05-21T01:29:14.523Z,99.99
2023-05-21T01:29:24.917Z,99.99
2023-05-21T01:29:35.447Z,99.99
2023-05-21T01:29:45.940Z,99.99
2023-05-21T01:29:56.447Z,99.99
2023-05-21T01:30:06.962Z,99.99
2023-05-21T01:30:17.473Z,99.99
2023-05-21T01:30:27.993Z,99.99
2023-05-21T01:30:38.507Z,99.99
2023-05-21T01:30:49.034Z,99.99
2023-05-21T01:30:59.538Z,99.99
2023-05-21T01:31:10.050Z,99.99
2023-05-21T01:31:20.573Z,99.99
2023-05-21T01:31:31.078Z,99.99
2023-05-21T01:31:41.595Z,99.99
2023-05-21T01:31:52.106Z,99.99
2023-05-21T01:32:02.629Z,99.99
2023-05-21T01:32:13.280Z,99.99
2023-05-21T01:32:23.718Z,99.99
2023-05-21T01:32:34.248Z,99.99
2023-05-21T01:32:44.810Z,99.99
2023-05-21T01:32:55.317Z,99.99
2023-05-21T01:33:05.918Z,99.99
2023-05-21T01:33:16.318Z,99.99
2023-05-21T01:33:26.811Z,99.99
2023-05-21T01:33:37.355Z,99.99
2023-05-21T01:33:47.866Z,99.99
2023-05-21T01:33:58.334Z,99.99
2023-05-21T01:34:08.834Z,99.99
2023-05-21T01:34:19.313Z,99.99
2023-05-21T01:34:29.819Z,99.99
2023-05-21T01:34:40.329Z,99.99
2023-05-21T01:34:50.875Z,99.99
2023-05-21T01:35:01.373Z,99.99
2023-05-21T01:35:11.902Z,99.99
2023-05-21T01:35:22.391Z,99.99
2023-05-21T01:35:32.927Z,99.99
2023-05-21T01:35:43.402Z,99.99
2023-05-21T01:35:53.925Z,99.99
2023-05-21T01:36:04.437Z,99.99
2023-05-21T01:36:14.953Z,99.99
2023-05-21T01:36:25.462Z,99.99
2023-05-21T01:36:35.997Z,99.99
2023-05-21T01:36:46.493Z,99.99
2023-05-21T01:36:57.012Z,99.99
2023-05-21T01:37:07.520Z,99.99
2023-05-21T01:37:18.045Z,99.99
2023-05-21T01:37:28.555Z,99.99
2023-05-21T01:37:39.081Z,99.99
2023-05-21T01:37:49.587Z,99.99
2023-05-21T01:38:00.138Z,99.99
2023-05-21T01:38:10.616Z,99.99
2023-05-21T01:38:21.128Z,99.99
2023-05-21T01:38:31.656Z,99.99
2023-05-21T01:38:42.159Z,99.99
2023-05-21T01:38:52.664Z,99.99
2023-05-21T01:39:03.184Z,99.99
2023-05-21T01:39:13.708Z,99.99
2023-05-21T01:39:24.222Z,99.99
2023-05-21T01:39:34.730Z,99.99
2023-05-21T01:39:45.242Z,99.99
2023-05-21T01:39:55.780Z,99.99
2023-05-21T01:40:06.266Z,99.99
2023-05-21T01:40:16.791Z,99.99
2023-05-21T01:40:27.296Z,99.99
2023-05-21T01:40:37.810Z,99.99
2023-05-21T01:40:48.321Z,99.99
2023-05-21T01:40:58.882Z,99.99
2023-05-21T01:41:09.370Z,99.99
2023-05-21T01:41:19.878Z,99.99
2023-05-21T01:41:30.447Z,99.99
2023-05-21T01:41:40.914Z,99.99
2023-05-21T01:41:51.418Z,99.99
2023-05-21T01:42:01.922Z,99.99
2023-05-21T01:42:12.458Z,99.99
2023-05-21T01:42:22.968Z,99.99
2023-05-21T01:42:33.473Z,99.99
2023-05-21T01:42:43.976Z,99.99
2023-05-21T01:42:54.528Z,99.99
2023-05-21T01:43:05.013Z,99.99
2023-05-21T01:43:15.530Z,99.99
2023-05-21T01:43:26.041Z,99.99
2023-05-21T01:43:36.554Z,99.99
2023-05-21T01:43:47.071Z,99.99
2023-05-21T01:43:57.596Z,99.99
2023-05-21T01:44:08.120Z,99.99
2023-05-21T01:44:18.618Z,99.99
2023-05-21T01:44:29.125Z,99.99
2023-05-21T01:44:39.643Z,99.99
2023-05-21T01:44:50.153Z,99.99
2023-05-21T01:45:00.688Z,99.99
2023-05-21T01:45:11.210Z,99.99
2023-05-21T01:45:21.696Z,99.99
2023-05-21T01:45:32.211Z,99.99
2023-05-21T01:45:42.742Z,99.99
2023-05-21T01:45:53.256Z,99.99
2023-05-21T01:46:03.792Z,99.99
2023-05-21T01:46:14.302Z,99.99
2023-05-21T01:46:24.804Z,99.99
2023-05-21T01:46:35.367Z,99.99
2023-05-21T01:46:45.873Z,99.99
2023-05-21T01:46:56.341Z,99.99
2023-05-21T01:47:06.914Z,99.99
2023-05-21T01:47:17.387Z,99.99
2023-05-21T01:47:27.905Z,99.99
2023-05-21T01:47:38.479Z,99.99
2023-05-21T01:47:49.040Z,99.99
2023-05-21T01:47:59.486Z,99.99
2023-05-21T01:48:09.953Z,99.99
2023-05-21T01:48:20.462Z,99.99
2023-05-21T01:48:30.976Z,99.99
2023-05-21T01:48:41.489Z,99.99
2023-05-21T01:48:52.009Z,99.99
2023-05-21T01:49:02.523Z,99.99
2023-05-21T01:49:13.028Z,99.99
2023-05-21T01:49:23.556Z,99.99
2023-05-21T01:49:34.059Z,99.99
2023-05-21T01:49:44.566Z,99.99
2023-05-21T01:49:55.085Z,99.99
2023-05-21T01:50:05.614Z,99.99
2023-05-21T01:50:16.191Z,99.99
2023-05-21T01:50:26.634Z,99.99
2023-05-21T01:50:37.152Z,99.99
2023-05-21T01:50:47.663Z,99.99
2023-05-21T01:50:58.182Z,99.99
2023-05-21T01:51:08.688Z,99.99
2023-05-21T01:51:19.217Z,99.99
2023-05-21T01:51:29.717Z,99.99
2023-05-21T01:51:40.236Z,99.99
2023-05-21T01:51:50.747Z,99.99
2023-05-21T01:52:01.440Z,99.99
2023-05-21T01:52:11.778Z,99.99
2023-05-21T01:52:22.301Z,99.99
2023-05-21T01:52:32.809Z,99.99
2023-05-21T01:52:43.334Z,99.99
2023-05-21T01:52:53.874Z,99.99
2023-05-21T01:53:04.353Z,99.99
2023-05-21T01:53:14.870Z,99.99
2023-05-21T01:53:25.380Z,99.99
2023-05-21T01:53:35.899Z,99.99
2023-05-21T01:53:46.409Z,99.99
2023-05-21T01:53:56.914Z,99.99
2023-05-21T01:54:07.429Z,99.99
2023-05-21T01:54:17.961Z,99.99
2023-05-21T01:54:28.468Z,99.99
2023-05-21T01:54:38.970Z,99.99
2023-05-21T01:54:49.490Z,99.99
2023-05-21T01:54:59.999Z,99.99
2023-05-21T01:55:10.515Z,99.99
2023-05-21T01:55:21.029Z,99.99
2023-05-21T01:55:31.545Z,99.99
2023-05-21T01:55:42.254Z,99.99
2023-05-21T01:55:52.570Z,99.99
2023-05-21T01:56:03.132Z,99.99
2023-05-21T01:56:13.597Z,99.99
2023-05-21T01:56:24.109Z,99.99
2023-05-21T01:56:34.644Z,99.99
2023-05-21T01:56:45.149Z,99.99
2023-05-21T01:56:55.659Z,99.99
2023-05-21T01:57:06.186Z,99.99
2023-05-21T01:57:16.695Z,99.99
2023-05-21T01:57:27.195Z,99.99
2023-05-21T01:57:37.709Z,99.99
2023-05-21T01:57:48.234Z,99.99
2023-05-21T01:58:01.238Z,99.99
2023-05-21T01:58:09.247Z,99.99
2023-05-21T01:58:19.780Z,99.99
2023-05-21T01:58:30.277Z,99.99
2023-05-21T01:58:40.831Z,99.99
2023-05-21T01:58:51.309Z,99.99
2023-05-21T01:59:01.831Z,99.99
2023-05-21T01:59:12.356Z,99.99
2023-05-21T01:59:22.861Z,99.99
2023-05-21T01:59:33.367Z,99.99
2023-05-21T01:59:43.880Z,99.99
2023-05-21T01:59:54.396Z,99.99
2023-05-21T02:00:04.918Z,99.99
2023-05-21T02:00:15.426Z,99.99
2023-05-21T02:00:25.957Z,99.99
2023-05-21T02:00:36.452Z,99.99
2023-05-21T02:00:46.974Z,99.99
2023-05-21T02:00:57.496Z,99.99
2023-05-21T02:01:08.004Z,99.99
2023-05-21T02:01:18.519Z,99.99
2023-05-21T02:01:29.045Z,99.99
2023-05-21T02:01:39.586Z,99.99
2023-05-21T02:01:50.123Z,99.99
2023-05-21T02:02:00.601Z,99.99
2023-05-21T02:02:11.380Z,99.99
2023-05-21T02:02:21.625Z,99.99
2023-05-21T02:02:32.164Z,99.99
2023-05-21T02:02:42.662Z,99.99
2023-05-21T02:02:53.268Z,99.99
2023-05-21T02:03:03.799Z,99.99
2023-05-21T02:03:14.285Z,99.99
2023-05-21T02:03:24.913Z,99.99
2023-05-21T02:03:35.269Z,99.99
2023-05-21T02:03:45.785Z,99.99
2023-05-21T02:03:56.303Z,99.99
2023-05-21T02:04:07.023Z,99.99
2023-05-21T02:04:17.268Z,99.99
2023-05-21T02:04:27.778Z,99.99
2023-05-21T02:04:38.292Z,99.99
2023-05-21T02:04:48.811Z,99.99
2023-05-21T02:04:59.320Z,99.99
2023-05-21T02:05:09.853Z,99.99
2023-05-21T02:05:20.384Z,99.99
2023-05-21T02:05:30.866Z,99.99
2023-05-21T02:05:41.406Z,99.99
2023-05-21T02:05:51.940Z,99.99
2023-05-21T02:06:02.411Z,99.99
2023-05-21T02:06:12.927Z,99.99
2023-05-21T02:06:23.452Z,99.99
2023-05-21T02:06:33.990Z,99.99
2023-05-21T02:06:44.476Z,99.99
2023-05-21T02:06:54.990Z,99.99
2023-05-21T02:07:05.499Z,99.99
2023-05-21T02:07:16.012Z,99.99
2023-05-21T02:07:26.532Z,99.99
2023-05-21T02:07:37.053Z,99.99
2023-05-21T02:07:47.588Z,99.99
2023-05-21T02:07:58.068Z,99.99
2023-05-21T02:08:08.590Z,99.99
2023-05-21T02:08:19.093Z,99.99
2023-05-21T02:08:29.618Z,99.99
2023-05-21T02:08:40.124Z,99.99
2023-05-21T02:08:50.638Z,99.99
2023-05-21T02:09:01.151Z,99.99
2023-05-21T02:09:11.668Z,99.99
2023-05-21T02:09:22.184Z,99.99
2023-05-21T02:09:32.704Z,99.99
2023-05-21T02:09:43.234Z,99.99
2023-05-21T02:09:53.746Z,99.99
2023-05-21T02:10:04.251Z,99.99
2023-05-21T02:10:14.767Z,99.99
2023-05-21T02:10:25.276Z,99.99
2023-05-21T02:10:35.791Z,99.99
2023-05-21T02:10:46.309Z,99.99
2023-05-21T02:10:56.812Z,99.99
2023-05-21T02:11:07.334Z,99.99
2023-05-21T02:11:17.847Z,99.99
2023-05-21T02:11:28.360Z,99.99
2023-05-21T02:11:38.883Z,99.99
2023-05-21T02:11:49.393Z,99.99
2023-05-21T02:11:59.908Z,99.99
2023-05-21T02:12:10.417Z,99.99
2023-05-21T02:12:20.932Z,99.99
2023-05-21T02:12:31.443Z,99.99
2023-05-21T02:12:41.961Z,99.99
2023-05-21T02:12:52.491Z,99.99
2023-05-21T02:13:02.990Z,99.99
2023-05-21T02:13:13.528Z,99.99
2023-05-21T02:13:26.305Z,99.99
2023-05-21T02:13:34.529Z,99.99
2023-05-21T02:13:45.045Z,99.99
2023-05-21T02:13:55.569Z,99.99
2023-05-21T02:14:06.078Z,99.99
2023-05-21T02:14:16.595Z,99.99
2023-05-21T02:14:27.131Z,99.99
2023-05-21T02:14:37.618Z,99.99
2023-05-21T02:14:48.130Z,99.99
2023-05-21T02:14:58.647Z,99.99
2023-05-21T02:15:09.171Z,99.99
2023-05-21T02:15:19.678Z,99.99